Terminal Aerodrome Forecast
Issued by NWS

Home | Current Version | Previous Version | Text Only | Print | Product List | Glossary On
Versions: 1 2 3 4 5 6 7 8 9 10 11 12 13
670
FTUS46 KEKA 040528
TAFUKI
TAF
KUKI 040528Z 0406/0506 00000KT P6SM OVC080
     FM041000 VRB03KT 6SM BR BKN025 OVC050
     FM041900 17006KT P6SM VCSH SCT025 OVC035=

USA.gov is the U.S. government's official web portal to all federal, state and local government web resources and services.